Briefing drone pour Sury-le-comtal

Rechercher une autre localisation

Conditions de vol :


Nous sommes le : Mardi 22 juin 2021
Il est 22:54 UTC (00:54 LT)

Lever de soleil : 03:28 UTC (05:28 LT)
Coucher de soleil : 20:02 UTC (22:02 LT)

Météo

L'essentiel des conditions de vol

VIGILANCE MÉTÉO FRANCE - Loire (42)
Vigilance Jaune : Orages
CARTE TEMSI
CARTES DES FRONTS
METAR de LFMH
LFMH 212230Z AUTO 11003KT 080V150 9999 -RA FEW036/// SCT074/// OVC088/// ///TCU 15/14 Q1012

Date d'émission: 21/06/2021
Heure d'émission: 22:30 UTC
Vent: 110° (variable du 080° au 150°) pour 3 KT (6 km/h)
Visibilité horizontale: > 10 km
Plafond :
- Peu de nuages à 3600ft (1097m)
- Nuages épars à 7400ft (2256m)
- Couvert à 8800ft (2682m)
Température: 15 °C
Point de rosée: 14 °C
Humidité: 94%
Pression (QNH): 1012 hPa
Conditions: Faible pluie
TAF de LFMH
LFMH 161901Z 1619/1712 CNL

Conditions prévues :

Heure d'émission : Bulletin éffectué le 16 à 19:00 UTC
Prévision : Valide du 16 a 19:00 UTC au 17 a 12:00 UTC
Nuages : à 0ft (0 m)
WEBCAM POUR SURY-LE-COMTAL

Réglementation

Voler en sécurité

CARTES AERONAUTIQUE 1/500.000
CARTES VAC (LFMH)
SUP AIP




Chargement des AIP...
NOTAM (SURY-LE-COMTAL + Terrain à proximité / FIR )




Chargement des NOTAMS...
CONTACT PREFECTURE 42


Avertissement : Les données mises à disposition sont indicatives. Oxygène Drone ne pourra être tenu responsable de dégâts causés aux biens et aux personnes.